createdAt,value
2023-02-12T00:00:58.419Z,103533.19
2023-02-12T00:06:03.013Z,103541.19
2023-02-12T00:11:10.369Z,103553.50
2023-02-12T00:16:15.227Z,103550.03
2023-02-12T00:21:19.313Z,103548.22
2023-02-12T00:26:22.851Z,103528.19
2023-02-12T00:31:29.294Z,103543.88
2023-02-12T00:36:36.295Z,103544.66
2023-02-12T00:41:38.926Z,103547.38
2023-02-12T00:46:41.884Z,103539.66
2023-02-12T00:51:46.236Z,103546.81
2023-02-12T00:56:49.218Z,103531.81
2023-02-12T01:01:52.650Z,103538.69
2023-02-12T01:06:56.607Z,103537.78
2023-02-12T01:11:59.462Z,103544.84
2023-02-12T01:17:02.124Z,103515.25
2023-02-12T01:22:06.062Z,103536.03
2023-02-12T01:27:08.617Z,103536.13
2023-02-12T01:32:11.323Z,103536.94
2023-02-12T01:37:15.289Z,103526.31
2023-02-12T01:42:18.827Z,103524.56
2023-02-12T01:47:21.399Z,103522.81
2023-02-12T01:52:31.274Z,103521.03
2023-02-12T01:57:36.970Z,103520.19
2023-02-12T02:02:40.682Z,103526.75
2023-02-12T02:07:46.319Z,103509.16
2023-02-12T02:13:06.814Z,103510.88
2023-02-12T02:18:17.076Z,103421.06
2023-02-12T02:23:48.742Z,103501.94
2023-02-12T02:29:05.473Z,103502.06
2023-02-12T02:34:13.229Z,103500.16
2023-02-12T02:39:25.852Z,103497.53
2023-02-12T02:44:36.414Z,103489.56
2023-02-12T02:49:45.633Z,103491.34
2023-02-12T02:54:53.662Z,103493.16
2023-02-12T03:00:00.242Z,103490.50
2023-02-12T03:05:10.284Z,103488.78
2023-02-12T03:10:17.136Z,103493.09
2023-02-12T03:15:25.642Z,103491.28
2023-02-12T03:20:34.338Z,103497.63
2023-02-12T03:25:41.671Z,103490.59
2023-02-12T03:30:49.637Z,103496.84
2023-02-12T03:36:00.583Z,103489.84
2023-02-12T03:41:07.675Z,103501.16
2023-02-12T03:46:18.836Z,103507.41
2023-02-12T03:51:26.385Z,103509.16
2023-02-12T03:56:36.088Z,103500.47
2023-02-12T04:01:38.951Z,103506.56
2023-02-12T04:06:43.323Z,103512.72
2023-02-12T04:12:03.425Z,103512.00
2023-02-12T04:17:13.727Z,103512.00
2023-02-12T04:22:28.935Z,103522.50
2023-02-12T04:27:38.974Z,103526.81
2023-02-12T04:32:47.754Z,103531.25
2023-02-12T04:37:55.887Z,103534.09
2023-02-12T04:42:58.459Z,103545.56
2023-02-12T04:48:01.774Z,103540.06
2023-02-12T04:53:05.660Z,103545.44
2023-02-12T04:58:08.947Z,103548.22
2023-02-12T05:03:11.538Z,103555.09
2023-02-12T05:08:15.437Z,103550.78
2023-02-12T05:13:17.986Z,103549.19
2023-02-12T05:18:20.873Z,103552.69
2023-02-12T05:23:27.073Z,103555.34
2023-02-12T05:28:30.534Z,103553.44
2023-02-12T05:33:33.957Z,103562.19
2023-02-12T05:38:38.013Z,103534.28
2023-02-12T05:43:41.206Z,103568.50
2023-02-12T05:48:43.762Z,103574.72
2023-02-12T05:53:47.683Z,103571.13
2023-02-12T05:58:54.511Z,103569.47
2023-02-12T06:03:57.310Z,103577.31
2023-02-12T06:09:02.028Z,103573.84
2023-02-12T06:14:04.720Z,103581.81
2023-02-12T06:19:07.809Z,103574.94
2023-02-12T06:24:12.702Z,103573.13
2023-02-12T06:29:15.468Z,103579.31
2023-02-12T06:34:18.515Z,103577.84
2023-02-12T06:39:22.411Z,103568.00
2023-02-12T06:44:25.027Z,103574.19
2023-02-12T06:49:27.599Z,103573.19
2023-02-12T06:54:32.024Z,103579.25
2023-02-12T06:59:34.571Z,103583.63
2023-02-12T07:04:38.979Z,103603.88
2023-02-12T07:09:42.870Z,103599.50
2023-02-12T07:14:45.526Z,103596.78
2023-02-12T07:19:48.069Z,103590.75
2023-02-12T07:24:52.766Z,103598.50
2023-02-12T07:29:55.325Z,103602.94
2023-02-12T07:34:58.321Z,103611.75
2023-02-12T07:40:02.266Z,103606.34
2023-02-12T07:45:05.144Z,103616.88
2023-02-12T07:50:08.455Z,103615.13
2023-02-12T07:55:12.501Z,103624.97
2023-02-12T08:00:16.384Z,103630.41
2023-02-12T08:05:19.068Z,103623.38
2023-02-12T08:10:23.579Z,103631.91
2023-02-12T08:15:26.129Z,103626.53
2023-02-12T08:20:28.675Z,103638.66
2023-02-12T08:25:32.571Z,103640.34
2023-02-12T08:30:35.120Z,103645.59
2023-02-12T08:35:37.710Z,103654.31
2023-02-12T08:40:41.616Z,103648.06
2023-02-12T08:45:44.223Z,103658.56
2023-02-12T08:50:47.336Z,103656.63
2023-02-12T08:55:51.482Z,103600.84
2023-02-12T09:00:54.329Z,103664.34
2023-02-12T09:05:57.164Z,103665.16
2023-02-12T09:11:01.258Z,103664.97
2023-02-12T09:16:05.570Z,103671.94
2023-02-12T09:21:10.628Z,103678.50
2023-02-12T09:26:16.883Z,103672.16
2023-02-12T09:31:23.098Z,103681.63
2023-02-12T09:36:26.074Z,103677.09
2023-02-12T09:42:07.007Z,103673.34
2023-02-12T09:47:16.492Z,103672.38
2023-02-12T09:52:22.886Z,103674.78
2023-02-12T09:57:31.131Z,103672.88
2023-02-12T10:02:36.050Z,103675.31
2023-02-12T10:07:58.781Z,103685.78
2023-02-12T10:13:06.177Z,103684.72
2023-02-12T10:18:35.724Z,103688.13
2023-02-12T10:23:54.049Z,103689.69
2023-02-12T10:29:01.632Z,103681.72
2023-02-12T10:34:17.597Z,103687.66
2023-02-12T10:39:24.861Z,103678.81
2023-02-12T10:44:29.128Z,103689.19
2023-02-12T10:49:33.397Z,103685.56
2023-02-12T10:54:40.062Z,103678.53
2023-02-12T10:59:45.508Z,103678.44
2023-02-12T11:04:48.229Z,103675.72
2023-02-12T11:09:52.837Z,103673.88
2023-02-12T11:15:00.696Z,103675.59
2023-02-12T11:20:09.635Z,103671.25
2023-02-12T11:25:16.928Z,103618.16
2023-02-12T11:30:22.294Z,103664.50
2023-02-12T11:35:28.318Z,103654.03
2023-02-12T11:40:33.938Z,103647.91
2023-02-12T11:45:44.543Z,103648.56
2023-02-12T11:50:49.573Z,103640.41
2023-02-12T11:55:58.417Z,103595.69
2023-02-12T12:01:09.545Z,103640.03
2023-02-12T12:06:25.157Z,103635.75
2023-02-12T12:11:33.735Z,103639.41
2023-02-12T12:17:00.540Z,103628.94
2023-02-12T12:22:10.360Z,103620.84
2023-02-12T12:27:45.809Z,103622.50
2023-02-12T12:32:55.056Z,103614.44
2023-02-12T12:38:04.608Z,103604.88
2023-02-12T12:43:20.741Z,103603.19
2023-02-12T12:48:36.390Z,103590.69
2023-02-12T12:53:53.997Z,103587.03
2023-02-12T12:59:13.974Z,103587.88
2023-02-12T13:04:40.961Z,103575.22
2023-02-12T13:09:54.879Z,103537.00
2023-02-12T13:15:03.936Z,103569.13
2023-02-12T13:20:15.650Z,103552.47
2023-02-12T13:25:24.842Z,103552.47
2023-02-12T13:30:32.658Z,103484.56
2023-02-12T13:35:41.380Z,103554.50
2023-02-12T13:40:44.302Z,103545.75
2023-02-12T13:45:53.750Z,103547.53
2023-02-12T13:51:05.370Z,103546.59
2023-02-12T13:56:18.470Z,103540.44
2023-02-12T14:01:45.819Z,103516.22
2023-02-12T14:07:01.323Z,103556.50
2023-02-12T14:12:07.591Z,103546.06
2023-02-12T14:17:42.986Z,103542.72
2023-02-12T14:23:02.239Z,103549.75
2023-02-12T14:28:13.432Z,103547.19
2023-02-12T14:33:26.580Z,103543.59
2023-02-12T14:39:02.086Z,103541.25
2023-02-12T14:44:45.482Z,103544.81
2023-02-12T14:49:51.329Z,103541.28
2023-02-12T14:54:57.375Z,103552.06
2023-02-12T15:00:04.113Z,103531.00
2023-02-12T15:05:16.957Z,103535.25
2023-02-12T15:10:23.750Z,103536.09
2023-02-12T15:15:32.416Z,103530.09
2023-02-12T15:20:39.920Z,103527.53
2023-02-12T15:25:44.506Z,103519.69
2023-02-12T15:30:47.426Z,103515.28
2023-02-12T15:35:50.061Z,103517.03
2023-02-12T15:40:59.733Z,103518.03
2023-02-12T15:46:03.855Z,103507.34
2023-02-12T15:51:15.219Z,103505.69
2023-02-12T15:56:21.368Z,103489.19
2023-02-12T16:01:25.850Z,103497.97
2023-02-12T16:06:31.684Z,103496.13
2023-02-12T16:11:37.747Z,103496.94
2023-02-12T16:16:44.965Z,103501.44
2023-02-12T16:21:50.100Z,103497.84
2023-02-12T16:26:55.058Z,103497.97
2023-02-12T16:32:00.435Z,103500.81
2023-02-12T16:37:24.713Z,103510.63
2023-02-12T16:42:29.507Z,103495.75
2023-02-12T16:47:32.403Z,103512.50
2023-02-12T16:52:39.542Z,103513.47
2023-02-12T16:57:43.956Z,103505.78
2023-02-12T17:02:47.189Z,103511.97
2023-02-12T17:07:51.642Z,103516.53
2023-02-12T17:12:55.528Z,103517.22
2023-02-12T17:17:58.114Z,103519.69
2023-02-12T17:23:00.830Z,103495.41
2023-02-12T17:28:05.073Z,103526.94
2023-02-12T17:33:07.764Z,103523.31
2023-02-12T17:38:10.360Z,103516.22
2023-02-12T17:43:14.442Z,103518.84
2023-02-12T17:48:18.288Z,103516.19
2023-02-12T17:53:20.932Z,103527.59
2023-02-12T17:58:24.994Z,103503.06
2023-02-12T18:03:27.621Z,103521.50
2023-02-12T18:08:32.043Z,103518.78
2023-02-12T18:13:36.278Z,103518.84
2023-02-12T18:18:39.984Z,103526.84
2023-02-12T18:23:43.575Z,103468.50
2023-02-12T18:28:47.925Z,103500.69
2023-02-12T18:33:50.871Z,103525.94
2023-02-12T18:38:54.312Z,103530.31
2023-02-12T18:43:59.578Z,103519.75
2023-02-12T18:49:02.733Z,103528.59
2023-02-12T18:54:07.763Z,103529.50
2023-02-12T18:59:15.280Z,103527.69
2023-02-12T19:04:20.061Z,103515.56
2023-02-12T19:09:24.662Z,103513.00
2023-02-12T19:14:29.167Z,103506.88
2023-02-12T19:19:34.745Z,103510.38
2023-02-12T19:24:46.726Z,103512.16
2023-02-12T19:29:51.234Z,103509.44
2023-02-12T19:34:54.294Z,103503.31
2023-02-12T19:39:56.840Z,103505.94
2023-02-12T19:45:00.755Z,103505.13
2023-02-12T19:50:04.432Z,103496.28
2023-02-12T19:55:07.379Z,103501.59
2023-02-12T20:00:12.939Z,103490.16
2023-02-12T20:05:16.044Z,103498.97
2023-02-12T20:10:19.022Z,103497.25
2023-02-12T20:15:25.346Z,103491.00
2023-02-12T20:20:27.910Z,103491.00
2023-02-12T20:25:31.087Z,103499.09
2023-02-12T20:30:34.994Z,103500.91
2023-02-12T20:35:38.591Z,103505.16
2023-02-12T20:40:41.151Z,103497.22
2023-02-12T20:45:45.361Z,103495.47
2023-02-12T20:50:47.939Z,103498.97
2023-02-12T20:55:51.031Z,103496.34
2023-02-12T21:00:55.258Z,103492.81
2023-02-12T21:05:58.219Z,103498.97
2023-02-12T21:11:02.233Z,103490.31
2023-02-12T21:16:09.668Z,103489.56
2023-02-12T21:21:14.142Z,103463.56
2023-02-12T21:26:18.852Z,103487.25
2023-02-12T21:31:25.146Z,103475.88
2023-02-12T21:36:30.402Z,103490.47
2023-02-12T21:41:35.838Z,103494.78
2023-02-12T21:46:40.099Z,103491.97
2023-02-12T21:51:44.760Z,103491.06
2023-02-12T21:56:49.490Z,103489.13
2023-02-12T22:01:55.205Z,103488.28
2023-02-12T22:07:02.808Z,103489.00
2023-02-12T22:12:05.963Z,103484.66
2023-02-12T22:17:09.922Z,103478.50
2023-02-12T22:22:14.600Z,103479.44
2023-02-12T22:27:17.168Z,103480.16
2023-02-12T22:32:21.165Z,103489.91
2023-02-12T22:37:23.842Z,103460.09
2023-02-12T22:42:26.547Z,103482.72
2023-02-12T22:47:32.092Z,103483.69
2023-02-12T22:52:34.862Z,103482.72
2023-02-12T22:57:37.506Z,103492.53
2023-02-12T23:02:41.763Z,103497.69
2023-02-12T23:07:44.362Z,103484.44
2023-02-12T23:12:46.952Z,103491.53
2023-02-12T23:17:51.736Z,103487.25
2023-02-12T23:22:54.352Z,103495.03
2023-02-12T23:27:56.907Z,103478.34
2023-02-12T23:33:00.918Z,103480.91
2023-02-12T23:38:04.231Z,103472.06
2023-02-12T23:43:06.826Z,103472.94
2023-02-12T23:48:10.782Z,103470.41
2023-02-12T23:53:13.792Z,103459.94
2023-02-12T23:58:16.346Z,103461.47
